Monday, November 20, 2017, 7:25 AM GMT
Back to Local

CYQM, Moncton, N. B.

Location: , , Canada Lat: 46.117
Local Time: 7:25 AM GMT ( 7:25 GMT) Lon: -64.683
Time Zone: GMT Elev: 232 ft

Show me the last for .
Show Decoded

2017-11-20 07:00 METAR CYQM 200700Z 25018G24KT 15SM OVC021 01/M03 A2933 RMK SC8 SLP936 =
2017-11-20 06:00 METAR CYQM 200600Z 24020KT 15SM OVC017 01/M01 A2929 RMK SC8 SLP920 =
2017-11-20 05:00 METAR CYQM 200500Z 25020G30KT 15SM FEW009 OVC022 02/M00 A2924 RMK SF1SC7 SLP905
                 =
2017-11-20 04:53 METAR CYQM 200453Z 25019G30KT 15SM FEW009 OVC022 02/00 A2924 RMK SF1SC7 SLP903 =
2017-11-20 04:00 METAR CYQM 200400Z 25015G23KT 15SM FEW009 OVC017 04/02 A2920 RMK SF2SC6 SLP891 =
2017-11-20 03:42 METAR CYQM 200342Z 25021G27KT 15SM FEW008 OVC015 04/02 A2919 RMK SF2SC6 PRESRR
                 SLP887 =
2017-11-20 03:00 METAR CYQM 200300Z 24018G28KT 15SM -RA BKN007 OVC018 06/05 A2913 RMK SF7SC1
                 PRESRR SLP869 =
2017-11-20 02:51 METAR CYQM 200251Z 23021G27KT 15SM -RA BKN007 OVC018 07/06 A2912 RMK SF5SC3
                 PRESRR SLP864 =
2017-11-20 02:19 METAR CYQM 200219Z 25023G30KT 15SM -RA SCT006 OVC016 08/07 A2909 RMK SF3SC5
                 PRESRR SLP855 DENSITY ALT 500FT =
2017-11-20 02:13 METAR CYQM 200213Z 25021G31KT 12SM -RA BKN006 OVC014 09/08 A2908 RMK SF6SC2
                 PRESRR SLP852 DENSITY ALT 600FT =
2017-11-20 02:07 METAR CYQM 200207Z 25023G31KT 170V270 12SM -RA FEW008 BKN011 OVC024 10/08 A2907
                 RMK SF1SC4SC3 PRESRR SLP849 DENSITY ALT 700FT =
2017-11-20 02:00 METAR CYQM 200200Z 21019G25KT 170V240 15SM -RA OVC022 12/10 A2906 RMK SC8 PRESRR
                 SLP843 DENSITY ALT 1000FT =
2017-11-20 01:00 METAR CYQM 200100Z 17013G22KT 15SM BKN024 OVC052 13/10 A2904 RMK SC7SC1 SLP837
                 DENSITY ALT 1100FT =
2017-11-20 00:00 METAR CYQM 200000Z 20014G22KT 15SM BKN019 OVC034 14/11 A2905 RMK SC7SC1 SLP840
                 DENSITY ALT 1200FT =
2017-11-19 23:22 METAR CYQM 192322Z 19013G26KT 15SM OVC024 14/12 A2904 RMK SC8 SLP838 DENSITY ALT
                 1200FT =
2017-11-19 23:00 METAR CYQM 192300Z 19015G23KT 15SM -RA BKN022 OVC055 14/12 A2905 RMK SC6SC2
                 SLP840 DENSITY ALT 1200FT =
2017-11-19 22:45 METAR CYQM 192245Z 19017G26KT 15SM -RA BKN028 OVC055 14/12 A2905 RMK SC6SC2
                 SLP840 DENSITY ALT 1200FT =
2017-11-19 22:26 METAR CYQM 192226Z 18017G25KT 15SM BKN024 BKN055 14/12 A2905 RMK SC6SC1 SLP841
                 DENSITY ALT 1200FT =
2017-11-19 22:00 METAR CYQM 192200Z 19020G26KT 12SM -RA FEW016 BKN030 BKN055 OVC090 15/12 A2906
                 RMK SC2SC3SC1AC2 SLP845 DENSITY ALT 1300FT =
2017-11-19 21:00 METAR CYQM 192100Z 17014G20KT 12SM -RA FEW009 SCT018 BKN027 OVC087 15/14 A2907
                 RMK SF2SC2SC2AC2 SLP846 DENSITY ALT 1300FT =
2017-11-19 20:57 METAR CYQM 192057Z 17014G20KT 12SM -RA FEW009 BKN019 OVC087 15/14 A2906 RMK
                 SF2SC3AC3 SLP845 DENSITY ALT 1300FT =
2017-11-19 20:00 METAR CYQM 192000Z 16015G24KT 10SM RA SCT008 BKN012 BKN022 OVC057 14/14 A2909
                 RMK SF4SC2SC1SC1 SLP853 DENSITY ALT 1200FT =
2017-11-19 19:50 METAR CYQM 191950Z 16018G26KT 10SM RA SCT009 BKN027 OVC057 14/14 A2910 RMK
                 SF3SC3SC2 SLP856 DENSITY ALT 1200FT =
2017-11-19 19:00 METAR CYQM 191900Z 16017G26KT 12SM -RA SCT007 BKN015 OVC023 OVC070 14/14 A2912
                 RMK SF4SC3SC1AC1 AC TR PRESFR SLP863 DENSITY ALT 1200FT =
2017-11-19 18:00 METAR CYQM 191800Z 15020G29KT 12SM -RA SCT008 SCT016 BKN053 OVC080 14/13 A2916
                 RMK SF3SC1SC2AC2 PRESFR SLP879 DENSITY ALT 1000FT =
2017-11-19 17:00 METAR CYQM 191700Z 15015G23KT 10SM -RA SCT007 BKN016 BKN052 OVC090 12/11 A2922
                 RMK SF4SC1SC2AC1 PRESFR SLP898 DENSITY ALT 800FT =
2017-11-19 16:00 METAR CYQM 191600Z 13013G20KT 10SM -RA SCT005 BKN014 BKN060 OVC087 09/08 A2928
                 RMK SF4SC2SC1AC1 PRESFR SLP919 DENSITY ALT 300FT =
2017-11-19 15:00 METAR CYQM 191500Z 12016G22KT 10SM -RA SCT004 BKN015 BKN041 OVC060 07/06 A2934
                 RMK SF4SC1SC2SC1 PRESFR SLP938 =
2017-11-19 14:00 METAR CYQM 191400Z 11013KT 10SM -RA BKN005 OVC014 04/03 A2940 RMK SF5SC3 SLP961
                 =
2017-11-19 13:00 METAR CYQM 191300Z 12013G18KT 12SM -RA FEW007 SCT016 OVC034 03/03 A2946 RMK
                 SF2SC2SC4 SLP980 =
2017-11-19 12:00 METAR CYQM 191200Z 09008KT 10SM -RA FEW008 BKN020 OVC030 02/02 A2950 RMK
                 SF2SC4SC2 SLP995 =
2017-11-19 11:00 METAR CYQM 191100Z 09008KT 15SM FEW022 OVC035 02/01 A2954 RMK SC2SC6 SLP007 =
2017-11-19 10:00 METAR CYQM 191000Z 10008KT 15SM -RA OVC057 01/01 A2957 RMK SC8 SLP020 =
2017-11-19 09:00 METAR CYQM 190900Z 10007KT 15SM -RA OVC053 01/M00 A2961 RMK SC8 SLP032 =
2017-11-19 08:44 METAR CYQM 190844Z 07004KT 15SM -RA BKN053 OVC080 01/M01 A2961 RMK SC6AC2 SLP032
                 =
2017-11-19 08:00 METAR CYQM 190800Z 12007KT 15SM BKN076 OVC120 01/M01 A2965 RMK AC7AC1 SLP045 =

Support USWX by starting your Amazon purchase here.